메인 페이지
METAR-TAF:

METAR-TAF

공항 :

메리다, 멕시코

위도: 20-56N, 경도: 089-39W, 고도: 10m

현재 날씨관측

예보는 20분 전, 15:20시(UTC)에 발표되었습니다.
남동16kt
온도 28°C
습도 70%
기압 1016 hPa
시정: 11.3km
고도 1500ft 상공 구름 많음

METAR: MMMD 031520Z 14016KT 7SM BKN015 28/22 A3000 RMK 8/500 HZY CI

시각: 09:40 (15:40 UTC)

예보

예보는 2 시간 29분 전, 13:11시(UTC)에 발표되었습니다.
예보 대상 시간: 03일 13시부터 04일 12시까지 (UTC)
5kt
시정: 3.2km
고도 600ft 상공 흐림
박무
전환 중
03일 15시부터 03일 16시까지 (UTC)
시정: 6.4km
고도 1000ft 상공 구름 많음
박무
03일 1700시부터 (UTC)
남동10kt
시정: 10km
고도 3000ft 상공 구름 보통
04일 0300시부터 (UTC)
남동5kt
시정: 8.0km
고도 1500ft 상공 구름 보통
연무
전환 중
04일 08시부터 04일 09시까지 (UTC)
시정: 4.8km
고도 500ft 상공
박무,

TAF: MMMD 031311Z 0313/0412 17005KT 2SM BR OVC006 TX36/0320Z TN24/0412Z BECMG 0315/0316 4SM BR BKN010 FM031700 13010KT P6SM SCT030 FM040300 13005KT 5SM HZ SCT015 BECMG 0408/0409 3SM BR VV005

4,000개 이상의 공항 관측 자료 및 예보 (METAR 및 TAF 보고).

지도상에서 검색 가능한 기상관측소가 노란 점과 빨간 점으로 표시되어 있습니다.

기상관측소 명을 보려면 표시 위로 마우스를 이동하세요.

날씨 관측과 예보를 보려면 클릭하세요.

지도 변경 : 확대하려면 엑스 표시가 있는 녹색 버튼, 축소하려면 빼기 표시가 있는 녹색 버튼, 다음 페이지의 지도를 보려면 녹색 화살표를 클릭하세요.


METAR-TAF: